WETTERDATEN

GESTERN
Time Temp. Taup. r.Fe. Windrich Windstärke Windböe Druck 1h Prec. 24h Prec.
00:02 19.1 18.6 97 270 0.3 1.1 1006.9 0.0000 0.0000
00:12 19.1 18.6 97 306 0.3 1.1 1006.9 0.0000 0.0000
00:23 19 18.5 97 270 0.3 1.1 1006.9 0.0000 0.0000
00:32 19 18.5 97 270 0.3 1.1 1007 0.0000 0.0000
00:42 19 18.5 97 270 0.3 1.1 1006.9 0.0000 0.0000
00:52 18.9 18.4 97 270 0.3 1.1 1007 0.0000 0.0000
01:03 18.9 18.4 97 270 0.3 1.1 1006.9 0.0000 0.0000
01:13 18.9 18.4 97 270 0.3 0.8 1007 0.0000 0.0000
01:22 18.8 18.3 97 270 0.3 1.1 1006.9 0.0000 0.0000
01:33 18.8 18.3 97 281 0.8 1.7 1006.9 0.0000 0.0000
01:43 18.6 18.1 97 270 0.3 1.1 1006.8 0.0000 0.0000
01:53 18.5 18 97 270 0.8 2.2 1006.7 0.0000 0.0000
02:03 18.4 17.9 97 270 0.3 1.1 1006.6 0.0000 0.0000
02:13 18.3 17.8 97 270 0.3 1.4 1006.7 0.0000 0.0000
02:23 18.2 17.7 97 315 0.3 1.1 1006.6 0.0000 0.0000
02:33 18.1 17.6 97 315 0.3 0.8 1006.6 0.0000 0.0000
02:43 18 17.5 97 0 0.8 1006.7 0.0000 0.0000
02:53 17.9 17.4 97 270 0.3 0.8 1006.7 0.0000 0.0000
03:03 17.8 17.3 97 270 0.3 1.4 1006.8 0.0000 0.0000
04:35 17.4 17.4 100 270 0.8 2.5 1007.1 0.0000 0.0000
04:44 17.5 17.5 100 270 0.8 2.5 1007 0.0000 0.0000
04:54 17.6 17.6 100 270 0.8 1.7 1007 0.0000 0.0000
05:05 17.6 17.6 100 281 0.8 2.5 1007.1 0.0000 0.0000
05:15 17.6 17.6 100 281 0.8 1.7 1007 0.0000 0.0000
05:24 17.6 17.6 100 270 0.3 1.7 1007 0.0000 0.0000
05:34 17.6 17.6 100 270 0.3 1.1 1007 0.0000 0.0000
05:45 17.5 17.5 100 270 0.8 1.7 1007 0.0000 0.0000
05:55 17.5 17.5 100 270 0.3 1.4 1007.1 0.0000 0.0000
06:05 17.5 17.5 100 288 0.8 1.4 1007.2 0.0000 0.0000
06:15 17.5 17.5 100 270 0.3 1.1 1007.3 0.0000 0.0000
06:25 17.5 17.5 100 270 0.8 1.7 1007.4 0.0000 0.0000
06:35 17.6 17.6 100 270 0.3 1.1 1007.4 0.0000 0.0000
06:45 17.6 17.6 100 270 0.3 1.1 1007.5 0.0000 0.0000
06:55 17.8 17.8 100 270 0.3 1.7 1007.6 0.0000 0.0000
07:05 18 18 100 270 0.3 1.1 1007.7 0.0000 0.0000
07:15 18.2 18.2 100 270 0.3 1.4 1007.7 0.0000 0.0000
07:26 18.4 18.4 100 270 0.8 1.7 1007.7 0.0000 0.0000
07:35 18.7 18.7 100 280 0.8 1.7 1007.7 0.0000 0.0000
07:45 19.1 19.1 100 259 0.8 1.4 1007.8 0.0000 0.0000
07:55 19.5 19.5 100 270 0.3 1.1 1007.9 0.0000 0.0000
08:06 19.9 19.9 100 270 0.3 1.4 1008.1 0.0000 0.0000
08:16 20.3 20.3 100 270 0.8 1.4 1008.1 0.0000 0.0000
08:25 20.8 20.8 100 270 0.8 1.7 1008.2 0.0000 0.0000
08:36 21.2 21.2 100 270 0.3 1.7 1008.3 0.0000 0.0000
08:46 21.7 21.5 99 270 0.8 1.7 1008.4 0.0000 0.0000
08:56 22.2 21.7 97 237 0.3 1.4 1008.6 0.0000 0.0000
09:06 22.6 21.8 95 270 0.3 1.1 1008.7 0.0000 0.0000
09:16 23 21.6 92 261 1.1 2.2 1008.7 0.0000 0.0000
09:26 23.3 21.6 90 270 0.3 1.4 1008.8 0.0000 0.0000
09:36 23.8 21.7 88 270 0.8 2.2 1008.9 0.0000 0.0000
09:46 24.1 21.4 85 270 0.8 3.6 1009 0.0000 0.0000
09:56 24.4 21.5 84 262 1.1 3.1 1009 0.0000 0.0000
10:06 24.7 21.6 83 283 0.8 1.4 1009 0.0000 0.0000
10:16 25.2 21.7 81 270 0.8 1.7 1009.2 0.0000 0.0000
10:27 25.6 21.7 79 270 0.8 2.8 1009.2 0.0000 0.0000
14:22 30.3 17 45 270 1.1 3.6 1009.6 0.0000 0.0000
14:32 30.3 17.4 46 225 1.1 3.1 1009.6 0.0000 0.0000
14:41 30.2 17.3 46 220 1.1 2.8 1009.6 0.0000 0.0000
14:52 30 16.8 45 249 1.4 3.6 1009.7 0.0000 0.0000
15:02 29.9 17 46 270 1.1 2.8 1009.6 0.0000 0.0000
15:12 29.6 16.8 46 256 0.8 2.8 1009.6 0.0000 0.0000
15:21 29.7 17.5 48 225 0.8 2.5 1009.6 0.0000 0.0000
15:32 29.7 17.2 47 270 0.8 2.2 1009.6 0.0000 0.0000
15:39 30.1 17.2 46 290 0.8 1.7 1009.6 0.0000 0.0000
15:48 30.1 16.9 45 240 1.1 2.5 1009.6 0.0000 0.0000
15:58 29.6 16.8 46 315 0.3 1.1 1009.5 0.0000 0.0000
16:08 29.3 16.5 46 308 0.3 1.1 1009.5 0.0000 0.0000
16:19 29.2 16.4 46 270 0.3 1.4 1009.5 0.0000 0.0000
16:28 29.1 16.6 47 315 0.3 1.1 1009.5 0.0000 0.0000
16:38 29 16.6 47 270 0.3 1.1 1009.4 0.0000 0.0000
16:49 28.9 16.5 47 270 0.8 1.4 1009.4 0.0000 0.0000
16:59 28.9 16.1 46 176 0.3 2.5 1009.3 0.0000 0.0000
17:09 28.9 16.1 46 248 0.8 1.7 1009.3 0.0000 0.0000
17:19 28.7 15.9 46 248 0.8 2.5 1009.3 0.0000 0.0000
17:29 29 16.2 46 270 0.3 2.2 1009.3 0.0000 0.0000
17:39 28.9 16.1 46 270 0.3 0.8 1009.4 0.0000 0.0000
17:49 29 16.2 46 270 0.3 1.1 1009.4 0.0000 0.0000
17:59 29.5 16.3 45 141 0.3 1.7 1009.3 0.0000 0.0000
18:09 29.5 16 44 225 1.1 3.6 1009.4 0.0000 0.0000
18:19 29.7 15.8 43 211 0.8 2.5 1009.3 0.0000 0.0000
18:29 29.6 15.7 43 235 0.8 1.7 1009.3 0.0000 0.0000
18:39 29.6 15.7 43 225 0.3 1.1 1009.4 0.0000 0.0000
18:49 29.5 15.2 42 225 0.8 1.4 1009.4 0.0000 0.0000
18:59 29.3 15.4 43 249 0.8 2.2 1009.4 0.0000 0.0000
19:10 29.1 15.3 43 225 0.3 1.1 1009.5 0.0000 0.0000
19:20 29 15.2 43 225 0.3 1.1 1009.6 0.0000 0.0000
19:29 28.7 15.3 44 270 0.3 1.1 1009.7 0.0000 0.0000
19:40 28.4 15 44 270 0.3 0.8 1009.7 0.0000 0.0000
19:50 27.9 15.6 47 0 0.3 1009.8 0.0000 0.0000
20:00 27.3 15.7 49 0 0.8 1009.9 0.0000 0.0000
20:09 26.7 15.4 50 270 0.3 0.8 1009.9 0.0000 0.0000
20:20 26.1 14.9 50 270 0.3 0.8 1010.1 0.0000 0.0000
20:30 25.7 14.8 51 270 0.3 1.1 1010.1 0.0000 0.0000
20:40 25.2 14.7 52 270 0.3 0.8 1010.2 0.0000 0.0000
20:50 24.9 14.7 53 270 0.3 0.8 1010 0.0000 0.0000
21:00 24.5 14.9 55 270 0.3 0.8 1010.2 0.0000 0.0000
21:10 24.2 14.9 56 0 0.8 1010.2 0.0000 0.0000
21:20 23.9 14.9 57 270 0.3 0.8 1010.3 0.0000 0.0000
21:31 23.6 14.9 58 0 0.8 1010.4 0.0000 0.0000
21:40 23.2 15 60 0 0.3 1010.5 0.0000 0.0000
21:50 22.9 15 61 0 0.3 1010.5 0.0000 0.0000
22:01 22.5 14.9 62 0 0.8 1010.5 0.0000 0.0000
22:11 22.2 14.8 63 216 0.3 0.8 1010.6 0.0000 0.0000
22:20 22 14.9 64 270 0.3 1.1 1010.7 0.0000 0.0000
22:30 21.7 14.8 65 281 0.8 1.4 1010.7 0.0000 0.0000
22:41 21.6 15 66 0 0.8 1010.7 0.0000 0.0000
22:51 21.4 15 67 0 0.8 1010.7 0.0000 0.0000
23:00 21.2 14.8 67 270 0.3 1.1 1010.6 0.0000 0.0000
23:11 21.1 14.7 67 0 0.3 1010.7 0.0000 0.0000
23:21 20.9 14.8 68 270 0.3 0.8 1010.7 0.0000 0.0000
23:31 20.8 14.7 68 270 0.8 1.1 1010.6 0.0000 0.0000
23:41 20.7 14.6 68 270 0.8 1.1 1010.8 0.0000 0.0000
23:51 20.6 14.5 68 270 0.8 1.1 1010.8 0.0000 0.0000

TAGESSTATISTIK

2022-08-16
TEMPERATUR
MITTEL
23.2
MAXIMUM
30.3
14:22
MINIMUM
17.4
04:35
LUFTDRUCK
MITTEL
1008.7
MAXIMUM
1010.8
23:41
MINIMUM
1006.6
02:03
TAUPUNKT
MITTEL
17.3
MAXIMUM
21.8
09:06
MINIMUM
14.5
23:51
FEUCHTIGKEIT
MITTEL
74
MAXIMUM
100
04:35
MINIMUM
42
18:49
WINDSTÄRKE
MITTEL
0.5
MAXIMUM
1.4
14:52
WINDBÖE
MITTEL
1.5
MAXIMUM
3.6
09:46
WINDRICHTUNG
VORHERRSCHENDE
W
71.7%
N
0.0
NO
0.0
O
0.0
SO
0.9
S
0.9
SW
11.5
W
71.7
NW
5.3
NIEDERSCHLAG
REGEN STUNDE
0.0
REGEN TAG
0.0
TEMPERATUR (°C)
MINIMUM
17.4
MAXIMUM
30.3
MITTEL
23.2
LUFTDRUCK (hpa)
MINIMUM
1006.6
MAXIMUM
1010.8
MITTEL
1008.7
MESSGERÄT